Gwyme, Virginia
Current Conditions -  °F | °C
As of 9:15 PM on Saturday 22 Nov 2014 (Local Time) from KW75 Reporting Station
Clear Clear  
Wind Chill: -3°   Ceiling: Unl
Heat Index: -1°   Visibility: 10mi
Dew Point: -6°   Wind: 5mph
Humidity: 70%   Direction: 190°S
Pressure: 30.34"   Gusts: NA
Location:  37.4982°N, 76.2873°W
Report Text: KW75 230215Z AUTO 19004KT 10SM CLR M01/M06 A3034 RMK AO1 T10081056
Loading
Personal Weather Stations






























Interactive Weather Map New forecast layout! Learn more

10-Day Weather Forecast

Advertisements
Track Severe Weather on mobile